createdAt,value
2017-04-01T00:00:30.760Z,14.89
2017-04-01T00:01:39.651Z,14.84
2017-04-01T00:02:48.701Z,14.78
2017-04-01T00:03:57.588Z,14.83
2017-04-01T00:05:06.474Z,14.83
2017-04-01T00:06:15.364Z,14.78
2017-04-01T00:07:24.259Z,14.81
2017-04-01T00:08:33.299Z,14.78
2017-04-01T00:09:42.199Z,14.68
2017-04-01T00:10:51.086Z,14.68
2017-04-01T00:11:59.973Z,14.62
2017-04-01T00:13:08.861Z,14.68
2017-04-01T00:14:17.803Z,14.7
2017-04-01T00:15:26.691Z,14.64
2017-04-01T00:16:35.584Z,14.6
2017-04-01T00:17:45.123Z,14.57
2017-04-01T00:18:54.011Z,14.57
2017-04-01T00:20:03.111Z,14.46
2017-04-01T00:21:12.040Z,14.5
2017-04-01T00:22:20.941Z,14.51
2017-04-01T00:23:29.839Z,14.42
2017-04-01T00:24:38.733Z,14.4
2017-04-01T00:25:47.775Z,14.52
2017-04-01T00:26:56.699Z,14.46
2017-04-01T00:28:05.591Z,14.43
2017-04-01T00:29:14.484Z,14.37
2017-04-01T00:30:23.701Z,14.32
2017-04-01T00:31:32.845Z,14.29
2017-04-01T00:32:41.738Z,14.28
2017-04-01T00:33:50.631Z,14.28
2017-04-01T00:34:59.523Z,14.28
2017-04-01T00:36:08.416Z,14.37
2017-04-01T00:37:17.310Z,14.32
2017-04-01T00:38:26.542Z,14.36
2017-04-01T00:39:35.769Z,14.29
2017-04-01T00:40:44.989Z,14.32
2017-04-01T00:41:53.879Z,14.33
2017-04-01T00:43:02.968Z,14.29
2017-04-01T00:44:11.859Z,14.36
2017-04-01T00:45:20.748Z,14.27
2017-04-01T00:46:29.969Z,14.27
2017-04-01T00:47:39.515Z,14.21
2017-04-01T00:48:48.806Z,14.15
2017-04-01T00:49:57.695Z,14.17
2017-04-01T00:51:06.583Z,14.22
2017-04-01T00:52:15.475Z,14.22
2017-04-01T00:53:24.371Z,14.2
2017-04-01T00:54:33.368Z,14.12
2017-04-01T00:55:42.264Z,14.18
2017-04-01T00:56:51.157Z,14.1
2017-04-01T00:58:00.047Z,14.14
2017-04-01T00:59:09.588Z,14.18
2017-04-01T01:00:18.733Z,14.18
2017-04-01T01:01:27.623Z,14
2017-04-01T01:02:36.840Z,14.02
2017-04-01T01:03:45.732Z,14
2017-04-01T01:04:54.629Z,13.99
2017-04-01T01:06:04.319Z,13.96
2017-04-01T01:07:13.213Z,14.04
2017-04-01T01:08:22.104Z,14
2017-04-01T01:09:30.989Z,13.99
2017-04-01T01:10:39.878Z,14
2017-04-01T01:11:49.130Z,13.99
2017-04-01T01:12:58.347Z,13.88
2017-04-01T01:14:07.568Z,13.79
2017-04-01T01:15:16.461Z,13.78
2017-04-01T01:16:25.351Z,13.81
2017-04-01T01:17:34.241Z,13.75
2017-04-01T01:18:43.175Z,13.77
2017-04-01T01:19:52.065Z,13.77
2017-04-01T01:21:00.992Z,13.77
2017-04-01T01:22:09.885Z,13.7
2017-04-01T01:23:19.252Z,13.77
2017-04-01T01:24:28.466Z,13.7
2017-04-01T01:25:37.362Z,13.75
2017-04-01T01:26:46.250Z,13.77
2017-04-01T01:27:55.140Z,13.73
2017-04-01T01:29:04.077Z,13.63
2017-04-01T01:30:12.972Z,13.66
2017-04-01T01:31:21.862Z,13.64
2017-04-01T01:32:31.085Z,13.64
2017-04-01T01:33:39.974Z,13.62
2017-04-01T01:34:49.118Z,13.63
2017-04-01T01:35:58.337Z,13.6
2017-04-01T01:37:07.554Z,13.52
2017-04-01T01:38:16.770Z,13.52
2017-04-01T01:39:25.666Z,13.6
2017-04-01T01:40:34.748Z,13.51
2017-04-01T01:41:43.640Z,13.48
2017-04-01T01:42:52.539Z,13.49
2017-04-01T01:44:01.430Z,13.49
2017-04-01T01:45:10.326Z,13.55
2017-04-01T01:46:19.223Z,13.54
2017-04-01T01:47:28.173Z,13.48
2017-04-01T01:48:37.391Z,13.51
2017-04-01T01:49:46.294Z,13.52
2017-04-01T01:50:55.194Z,13.52
2017-04-01T01:52:04.388Z,13.46
2017-04-01T01:53:13.278Z,13.45
2017-04-01T01:54:22.165Z,13.45
2017-04-01T01:55:31.052Z,13.51
2017-04-01T01:56:39.947Z,13.54
2017-04-01T01:57:49.163Z,13.52
2017-04-01T01:58:58.374Z,13.46
2017-04-01T02:00:07.584Z,13.54
2017-04-01T02:01:16.475Z,13.41
2017-04-01T02:02:25.368Z,13.45
2017-04-01T02:03:34.635Z,13.48
2017-04-01T02:04:43.528Z,13.52
2017-04-01T02:05:52.425Z,13.49
2017-04-01T02:07:01.315Z,13.51
2017-04-01T02:08:10.207Z,13.49
2017-04-01T02:09:19.152Z,13.52
2017-04-01T02:10:28.044Z,13.46
2017-04-01T02:11:36.941Z,13.49
2017-04-01T02:12:46.160Z,13.51
2017-04-01T02:13:55.047Z,13.39
2017-04-01T02:15:04.267Z,13.39
2017-04-01T02:16:13.489Z,13.33
2017-04-01T02:17:22.380Z,13.32
2017-04-01T02:18:31.268Z,13.38
2017-04-01T02:19:40.486Z,13.38
2017-04-01T02:20:49.578Z,13.33
2017-04-01T02:21:58.833Z,13.41
2017-04-01T02:23:07.736Z,13.33
2017-04-01T02:24:16.628Z,13.46
2017-04-01T02:25:26.167Z,13.46
2017-04-01T02:26:35.361Z,13.39
2017-04-01T02:27:44.252Z,13.36
2017-04-01T02:28:53.144Z,13.38
2017-04-01T02:30:02.034Z,13.45
2017-04-01T02:31:11.253Z,13.46
2017-04-01T02:32:20.392Z,13.48
2017-04-01T02:33:29.612Z,13.41
2017-04-01T02:34:38.828Z,13.46
2017-04-01T02:35:48.044Z,13.51
2017-04-01T02:36:56.934Z,13.52
2017-04-01T02:38:06.299Z,13.41
2017-04-01T02:39:15.511Z,13.45
2017-04-01T02:40:24.445Z,13.41
2017-04-01T02:41:33.657Z,13.45
2017-04-01T02:42:42.876Z,13.41
2017-04-01T02:43:51.919Z,13.32
2017-04-01T02:45:00.808Z,13.46
2017-04-01T02:46:09.703Z,13.49
2017-04-01T02:47:18.593Z,13.41
2017-04-01T02:48:27.808Z,13.49
2017-04-01T02:49:36.884Z,13.33
2017-04-01T02:50:46.098Z,13.36
2017-04-01T02:51:54.989Z,13.33
2017-04-01T02:53:03.879Z,13.32
2017-04-01T02:54:12.768Z,13.38
2017-04-01T02:55:21.761Z,13.38
2017-04-01T02:56:30.655Z,13.28
2017-04-01T02:57:39.549Z,13.42
2017-04-01T02:58:48.437Z,13.45
2017-04-01T02:59:57.327Z,13.32
2017-04-01T03:01:06.519Z,13.36
2017-04-01T03:02:15.414Z,13.3
2017-04-01T03:03:24.305Z,13.33
2017-04-01T03:04:33.194Z,13.36
2017-04-01T03:05:42.088Z,13.38
2017-04-01T03:06:51.454Z,13.36
2017-04-01T03:08:00.670Z,13.32
2017-04-01T03:09:09.567Z,13.32
2017-04-01T03:10:18.454Z,13.41
2017-04-01T03:11:27.347Z,13.22
2017-04-01T03:12:36.341Z,13.28
2017-04-01T03:13:45.231Z,13.22
2017-04-01T03:14:54.121Z,13.33
2017-04-01T03:16:03.014Z,13.3
2017-04-01T03:17:11.901Z,13.33
2017-04-01T03:18:20.941Z,13.26
2017-04-01T03:19:29.836Z,13.15
2017-04-01T03:20:39.054Z,13.29
2017-04-01T03:21:47.983Z,13.28
2017-04-01T03:22:56.876Z,13.22
2017-04-01T03:24:05.923Z,13.26
2017-04-01T03:25:14.813Z,13.26
2017-04-01T03:26:23.705Z,13.14
2017-04-01T03:27:32.599Z,13.19
2017-04-01T03:28:41.817Z,13.32
2017-04-01T03:29:50.813Z,13.15
2017-04-01T03:30:59.707Z,13.23
2017-04-01T03:32:08.605Z,13.22
2017-04-01T03:33:17.498Z,13.2
2017-04-01T03:34:26.735Z,13.12
2017-04-01T03:35:35.775Z,13.05
2017-04-01T03:36:44.664Z,13.07
2017-04-01T03:37:53.558Z,13.03
2017-04-01T03:39:02.451Z,12.96
2017-04-01T03:40:11.677Z,12.86
2017-04-01T03:41:20.942Z,12.77
2017-04-01T03:42:29.840Z,12.86
2017-04-01T03:43:38.726Z,12.74
2017-04-01T03:44:47.611Z,12.7
2017-04-01T03:45:56.498Z,12.72
2017-04-01T03:47:05.861Z,12.68
2017-04-01T03:48:14.753Z,12.65
2017-04-01T03:49:23.646Z,12.67
2017-04-01T03:50:32.539Z,12.71
2017-04-01T03:51:41.428Z,12.68
2017-04-01T03:52:50.396Z,12.53
2017-04-01T03:53:59.617Z,12.62
2017-04-01T03:55:08.538Z,12.6
2017-04-01T03:56:17.433Z,12.62
2017-04-01T03:57:26.664Z,12.53
2017-04-01T03:58:35.655Z,12.49
2017-04-01T03:59:44.544Z,12.47
2017-04-01T04:00:53.443Z,12.47
2017-04-01T04:02:02.337Z,12.45
2017-04-01T04:03:11.880Z,12.34
2017-04-01T04:04:21.243Z,12.39
2017-04-01T04:05:30.133Z,12.38
2017-04-01T04:06:39.347Z,12.29
2017-04-01T04:07:48.237Z,12.27
2017-04-01T04:08:57.127Z,12.24
2017-04-01T04:10:06.167Z,12.27
2017-04-01T04:11:15.383Z,12.16
2017-04-01T04:12:24.603Z,12.16
2017-04-01T04:13:33.653Z,12.16
2017-04-01T04:14:42.543Z,12.17
2017-04-01T04:15:51.582Z,12.04
2017-04-01T04:17:00.474Z,12.01
2017-04-01T04:18:09.375Z,12.02
2017-04-01T04:19:18.591Z,11.94
2017-04-01T04:20:27.481Z,11.91
2017-04-01T04:21:36.670Z,11.91
2017-04-01T04:22:45.889Z,11.91
2017-04-01T04:23:54.781Z,11.96
2017-04-01T04:25:03.670Z,11.83
2017-04-01T04:26:12.561Z,11.85
2017-04-01T04:27:21.597Z,11.86
2017-04-01T04:28:30.486Z,11.94
2017-04-01T04:29:39.376Z,11.96
2017-04-01T04:30:48.589Z,11.8
2017-04-01T04:31:58.126Z,11.78
2017-04-01T04:33:07.267Z,11.76
2017-04-01T04:34:16.162Z,11.76
2017-04-01T04:35:25.050Z,11.75
2017-04-01T04:36:33.944Z,11.69
2017-04-01T04:37:42.839Z,11.82
2017-04-01T04:38:51.878Z,11.82
2017-04-01T04:40:00.772Z,11.78
2017-04-01T04:41:09.668Z,11.7
2017-04-01T04:42:18.558Z,11.65
2017-04-01T04:43:28.106Z,11.6
2017-04-01T04:44:37.155Z,11.61
2017-04-01T04:45:46.366Z,11.55
2017-04-01T04:46:55.257Z,11.54
2017-04-01T04:48:04.146Z,11.54
2017-04-01T04:49:13.030Z,11.65
2017-04-01T04:50:22.397Z,11.55
2017-04-01T04:51:31.609Z,11.58
2017-04-01T04:52:40.501Z,11.6
2017-04-01T04:53:49.714Z,11.6
2017-04-01T04:54:58.599Z,11.6
2017-04-01T04:56:07.639Z,11.55
2017-04-01T04:57:16.529Z,11.54
2017-04-01T04:58:25.426Z,11.51
2017-04-01T04:59:34.645Z,11.55
2017-04-01T05:00:43.859Z,11.55
2017-04-01T05:01:53.128Z,11.51
2017-04-01T05:03:02.019Z,11.51
2017-04-01T05:04:10.908Z,11.64
2017-04-01T05:05:20.125Z,11.57
2017-04-01T05:06:29.337Z,11.52
2017-04-01T05:07:38.636Z,11.43
2017-04-01T05:08:47.854Z,11.43
2017-04-01T05:09:56.742Z,11.44
2017-04-01T05:11:05.633Z,11.51
2017-04-01T05:12:14.523Z,11.54
2017-04-01T05:13:23.886Z,11.54
2017-04-01T05:14:32.774Z,11.44
2017-04-01T05:15:41.665Z,11.39
2017-04-01T05:16:50.562Z,11.29
2017-04-01T05:17:59.783Z,11.39
2017-04-01T05:19:09.126Z,11.33
2017-04-01T05:20:18.018Z,11.21
2017-04-01T05:21:26.909Z,11.28
2017-04-01T05:22:35.801Z,11.28
2017-04-01T05:23:44.694Z,11.29
2017-04-01T05:24:53.733Z,11.24
2017-04-01T05:26:02.630Z,11.28
2017-04-01T05:27:12.164Z,11.28
2017-04-01T05:28:21.052Z,11.22
2017-04-01T05:29:30.265Z,11.29
2017-04-01T05:30:39.311Z,11.43
2017-04-01T05:31:48.219Z,11.37
2017-04-01T05:32:57.436Z,11.28
2017-04-01T05:34:06.657Z,11.32
2017-04-01T05:35:15.548Z,11.29
2017-04-01T05:36:24.589Z,11.18
2017-04-01T05:37:33.487Z,11.27
2017-04-01T05:38:42.379Z,11.24
2017-04-01T05:39:51.270Z,11.25
2017-04-01T05:41:00.160Z,11.17
2017-04-01T05:42:09.578Z,11.32
2017-04-01T05:43:18.479Z,11.28
2017-04-01T05:44:27.696Z,11.33
2017-04-01T05:45:36.920Z,11.4
2017-04-01T05:46:45.811Z,11.44
2017-04-01T05:47:54.714Z,11.49
2017-04-01T05:49:03.607Z,11.44
2017-04-01T05:50:12.497Z,11.39
2017-04-01T05:51:21.395Z,11.47
2017-04-01T05:52:30.287Z,11.43
2017-04-01T05:53:39.326Z,11.47
2017-04-01T05:54:48.219Z,11.49
2017-04-01T05:55:57.109Z,11.52
2017-04-01T05:57:06.002Z,11.52
2017-04-01T05:58:14.894Z,11.55
2017-04-01T05:59:24.460Z,11.51
2017-04-01T06:00:33.680Z,11.57
2017-04-01T06:01:42.900Z,11.54
2017-04-01T06:02:51.793Z,11.58
2017-04-01T06:04:01.005Z,11.64
2017-04-01T06:05:09.994Z,11.67
2017-04-01T06:06:18.887Z,11.72
2017-04-01T06:07:27.777Z,11.78
2017-04-01T06:08:36.667Z,11.75
2017-04-01T06:09:45.560Z,11.78
2017-04-01T06:10:54.856Z,11.73
2017-04-01T06:12:03.764Z,11.83
2017-04-01T06:13:12.986Z,11.9
2017-04-01T06:14:21.882Z,11.91
2017-04-01T06:15:30.788Z,11.96
2017-04-01T06:16:40.260Z,11.95
2017-04-01T06:17:49.151Z,12.02
2017-04-01T06:18:58.049Z,12.02
2017-04-01T06:20:06.947Z,12.02
2017-04-01T06:21:15.840Z,12.07
2017-04-01T06:22:25.312Z,12.1
2017-04-01T06:23:34.202Z,12.1
2017-04-01T06:24:43.094Z,12.12
2017-04-01T06:25:51.992Z,12.13
2017-04-01T06:27:00.885Z,12.07
2017-04-01T06:28:09.826Z,12.12
2017-04-01T06:29:19.044Z,12.17
2017-04-01T06:30:27.943Z,12.17
2017-04-01T06:31:36.835Z,12.28
2017-04-01T06:32:45.728Z,12.27
2017-04-01T06:33:54.873Z,12.24
2017-04-01T06:35:04.095Z,12.28
2017-04-01T06:36:13.313Z,12.45
2017-04-01T06:37:22.204Z,12.38
2017-04-01T06:38:31.097Z,12.37
2017-04-01T06:39:40.147Z,12.41
2017-04-01T06:40:49.065Z,12.45
2017-04-01T06:41:57.957Z,12.45
2017-04-01T06:43:06.845Z,12.42
2017-04-01T06:44:15.734Z,12.39
2017-04-01T06:45:24.779Z,12.45
2017-04-01T06:46:33.672Z,12.49
2017-04-01T06:47:42.564Z,12.49
2017-04-01T06:48:51.454Z,12.49
2017-04-01T06:50:00.348Z,12.52
2017-04-01T06:51:10.044Z,12.52
2017-04-01T06:52:18.936Z,12.49
2017-04-01T06:53:28.151Z,12.56
2017-04-01T06:54:37.376Z,12.62
2017-04-01T06:55:46.277Z,12.56
2017-04-01T06:56:55.507Z,12.59
2017-04-01T06:58:04.734Z,12.54
2017-04-01T06:59:13.624Z,12.6
2017-04-01T07:00:22.838Z,12.67
2017-04-01T07:01:31.730Z,12.67
2017-04-01T07:02:40.676Z,12.72
2017-04-01T07:03:49.570Z,12.79
2017-04-01T07:04:58.464Z,12.77
2017-04-01T07:06:08.007Z,12.82
2017-04-01T07:07:16.898Z,12.83
2017-04-01T07:08:26.271Z,12.86
2017-04-01T07:09:35.489Z,12.92
2017-04-01T07:10:44.380Z,12.93
2017-04-01T07:11:53.606Z,12.92
2017-04-01T07:13:02.497Z,12.93
2017-04-01T07:14:11.445Z,12.9
2017-04-01T07:15:20.343Z,12.96
2017-04-01T07:16:29.238Z,12.96
2017-04-01T07:17:38.126Z,13.05
2017-04-01T07:18:47.017Z,13.08
2017-04-01T07:19:56.048Z,13.04
2017-04-01T07:21:04.942Z,13.15
2017-04-01T07:22:13.835Z,13.11
2017-04-01T07:23:22.730Z,13.17
2017-04-01T07:24:31.956Z,13.25
2017-04-01T07:25:40.900Z,13.15
2017-04-01T07:26:49.859Z,13.3
2017-04-01T07:27:58.770Z,13.29
2017-04-01T07:29:07.758Z,13.36
2017-04-01T07:30:16.745Z,13.33
2017-04-01T07:31:25.798Z,13.32
2017-04-01T07:32:34.735Z,13.33
2017-04-01T07:33:43.626Z,13.48
2017-04-01T07:34:52.520Z,13.55
2017-04-01T07:36:01.736Z,13.59
2017-04-01T07:37:10.922Z,13.63
2017-04-01T07:38:20.180Z,13.62
2017-04-01T07:39:29.400Z,13.7
2017-04-01T07:40:38.620Z,13.78
2017-04-01T07:41:47.517Z,13.77
2017-04-01T07:42:56.556Z,13.85
2017-04-01T07:44:05.454Z,13.91
2017-04-01T07:45:14.343Z,13.92
2017-04-01T07:46:23.241Z,13.97
2017-04-01T07:47:32.164Z,13.99
2017-04-01T07:48:41.207Z,14.07
2017-04-01T07:49:50.098Z,14.06
2017-04-01T07:50:58.990Z,14.15
2017-04-01T07:52:07.885Z,14.15
2017-04-01T07:53:16.779Z,14.18
2017-04-01T07:54:26.010Z,14.22
2017-04-01T07:55:34.912Z,14.24
2017-04-01T07:56:44.489Z,14.22
2017-04-01T07:57:53.438Z,14.27
2017-04-01T07:59:02.655Z,14.28
2017-04-01T08:00:11.670Z,14.27
2017-04-01T08:01:20.897Z,14.27
2017-04-01T08:02:29.801Z,14.29
2017-04-01T08:03:38.698Z,14.36
2017-04-01T08:04:47.615Z,14.43
2017-04-01T08:05:57.034Z,14.47
2017-04-01T08:07:05.937Z,14.46
2017-04-01T08:08:14.833Z,14.51
2017-04-01T08:09:23.728Z,14.46
2017-04-01T08:10:32.627Z,14.43
2017-04-01T08:11:42.005Z,14.46
2017-04-01T08:12:51.227Z,14.51
2017-04-01T08:14:00.120Z,14.43
2017-04-01T08:15:09.052Z,14.55
2017-04-01T08:16:17.954Z,14.55
2017-04-01T08:17:27.429Z,14.5
2017-04-01T08:18:36.681Z,14.58
2017-04-01T08:19:45.904Z,14.57
2017-04-01T08:20:54.803Z,14.5
2017-04-01T08:22:03.697Z,14.8
2017-04-01T08:23:12.892Z,14.7
2017-04-01T08:24:21.797Z,14.69
2017-04-01T08:25:31.013Z,14.72
2017-04-01T08:26:40.232Z,14.7
2017-04-01T08:27:49.124Z,14.77
2017-04-01T08:28:58.440Z,14.72
2017-04-01T08:30:07.340Z,14.62
2017-04-01T08:31:16.271Z,14.69
2017-04-01T08:32:25.166Z,14.64
2017-04-01T08:33:34.386Z,14.73
2017-04-01T08:34:43.330Z,14.68
2017-04-01T08:35:52.552Z,14.73
2017-04-01T08:37:01.772Z,14.8
2017-04-01T08:38:10.669Z,14.8
2017-04-01T08:39:19.568Z,14.86
2017-04-01T08:40:28.623Z,14.86
2017-04-01T08:41:37.533Z,14.83
2017-04-01T08:42:46.437Z,14.86
2017-04-01T08:43:55.341Z,14.94
2017-04-01T08:45:04.572Z,14.99
2017-04-01T08:46:13.738Z,15.01
2017-04-01T08:47:22.644Z,15.06
2017-04-01T08:48:31.549Z,15.09
2017-04-01T08:49:40.446Z,15.17
2017-04-01T08:50:49.346Z,15.16
2017-04-01T08:51:58.999Z,15.17
2017-04-01T08:53:07.894Z,15.19
2017-04-01T08:54:16.805Z,15.21
2017-04-01T08:55:25.706Z,15.25
2017-04-01T08:56:34.606Z,15.29
2017-04-01T08:57:43.656Z,15.23
2017-04-01T08:58:52.550Z,15.27
2017-04-01T09:00:01.447Z,15.38
2017-04-01T09:01:10.997Z,15.38
2017-04-01T09:02:19.894Z,15.39
2017-04-01T09:03:29.423Z,15.53
2017-04-01T09:04:38.354Z,15.56
2017-04-01T09:05:47.573Z,15.57
2017-04-01T09:06:56.469Z,15.54
2017-04-01T09:08:05.361Z,15.53
2017-04-01T09:09:14.407Z,15.65
2017-04-01T09:10:23.307Z,15.67
2017-04-01T09:11:32.204Z,15.78
2017-04-01T09:12:41.099Z,15.64
2017-04-01T09:13:50.040Z,15.69
2017-04-01T09:14:59.410Z,15.78
2017-04-01T09:16:08.636Z,15.86
2017-04-01T09:17:17.855Z,15.87
2017-04-01T09:18:27.083Z,15.89
2017-04-01T09:19:35.973Z,16.02
2017-04-01T09:20:45.120Z,16.01
2017-04-01T09:21:54.033Z,16
2017-04-01T09:23:03.267Z,16
2017-04-01T09:24:12.174Z,15.97
2017-04-01T09:25:21.069Z,16.04
2017-04-01T09:26:30.582Z,16.04
2017-04-01T09:27:39.482Z,15.93
2017-04-01T09:28:48.373Z,16.05
2017-04-01T09:29:57.593Z,16.02
2017-04-01T09:31:06.489Z,16.17
2017-04-01T09:32:15.801Z,16.2
2017-04-01T09:33:24.707Z,16.24
2017-04-01T09:34:33.621Z,16.27
2017-04-01T09:35:42.550Z,16.25
2017-04-01T09:36:51.465Z,16.25
2017-04-01T09:38:00.986Z,16.27
2017-04-01T09:39:09.885Z,16.33
2017-04-01T09:40:18.779Z,16.46
2017-04-01T09:41:27.679Z,16.45
2017-04-01T09:42:36.895Z,16.58
2017-04-01T09:43:46.041Z,16.67
2017-04-01T09:44:54.948Z,16.64
2017-04-01T09:46:04.498Z,16.7
2017-04-01T09:47:13.394Z,16.71
2017-04-01T09:48:22.297Z,16.78
2017-04-01T09:49:31.341Z,16.68
2017-04-01T09:50:40.243Z,16.7
2017-04-01T09:51:49.140Z,16.73
2017-04-01T09:52:58.036Z,16.76
2017-04-01T09:54:06.935Z,16.82
2017-04-01T09:55:16.085Z,16.82
2017-04-01T09:56:24.992Z,16.85
2017-04-01T09:57:34.213Z,16.88
2017-04-01T09:58:43.104Z,16.91
2017-04-01T09:59:51.999Z,16.94
2017-04-01T10:01:01.049Z,16.97
2017-04-01T10:02:09.949Z,16.94
2017-04-01T10:03:18.842Z,16.97
2017-04-01T10:04:27.735Z,16.88
2017-04-01T10:05:36.629Z,16.91
2017-04-01T10:06:45.780Z,16.93
2017-04-01T10:07:55.336Z,16.98
2017-04-01T10:09:04.553Z,16.96
2017-04-01T10:10:13.446Z,17.07
2017-04-01T10:11:22.340Z,17
2017-04-01T10:12:31.337Z,17.14
2017-04-01T10:13:40.233Z,17.23
2017-04-01T10:14:49.224Z,17.28
2017-04-01T10:15:58.120Z,17.34
2017-04-01T10:17:07.089Z,17.36
2017-04-01T10:18:16.357Z,17.46
2017-04-01T10:19:25.250Z,17.43
2017-04-01T10:20:34.147Z,17.48
2017-04-01T10:21:43.387Z,17.54
2017-04-01T10:22:52.297Z,17.55
2017-04-01T10:24:01.343Z,17.51
2017-04-01T10:25:10.272Z,17.43
2017-04-01T10:26:19.168Z,17.41
2017-04-01T10:27:28.067Z,17.55
2017-04-01T10:28:36.981Z,17.56
2017-04-01T10:29:45.983Z,17.46
2017-04-01T10:30:54.923Z,17.66
2017-04-01T10:32:04.146Z,17.71
2017-04-01T10:33:13.042Z,17.64
2017-04-01T10:34:21.939Z,17.68
2017-04-01T10:35:31.321Z,17.71
2017-04-01T10:36:40.215Z,17.72
2017-04-01T10:37:49.110Z,17.84
2017-04-01T10:38:58.007Z,17.89
2017-04-01T10:40:07.265Z,17.92
2017-04-01T10:41:16.350Z,18
2017-04-01T10:42:25.249Z,18.02
2017-04-01T10:43:34.469Z,18.11
2017-04-01T10:44:43.688Z,18.18
2017-04-01T10:45:52.616Z,18.08
2017-04-01T10:47:01.568Z,18.05
2017-04-01T10:48:10.472Z,18.02
2017-04-01T10:49:19.367Z,18.05
2017-04-01T10:50:28.269Z,18.08
2017-04-01T10:51:37.178Z,18.29
2017-04-01T10:52:46.218Z,18.26
2017-04-01T10:53:55.118Z,18.44
2017-04-01T10:55:04.026Z,18.47
2017-04-01T10:56:12.927Z,18.42
2017-04-01T10:57:21.830Z,18.36
2017-04-01T10:58:31.331Z,18.39
2017-04-01T10:59:40.225Z,18.52
2017-04-01T11:00:49.123Z,18.55
2017-04-01T11:01:58.025Z,18.66
2017-04-01T11:03:06.919Z,18.75
2017-04-01T11:04:16.336Z,18.85
2017-04-01T11:05:25.557Z,18.81
2017-04-01T11:06:34.452Z,18.91
2017-04-01T11:07:43.353Z,18.94
2017-04-01T11:08:52.249Z,18.88
2017-04-01T11:10:01.246Z,19
2017-04-01T11:11:10.468Z,18.95
2017-04-01T11:12:19.367Z,19.07
2017-04-01T11:13:28.265Z,19.16
2017-04-01T11:14:37.212Z,19.33
2017-04-01T11:15:46.264Z,19.18
2017-04-01T11:16:55.164Z,19.16
2017-04-01T11:18:04.065Z,19.16
2017-04-01T11:19:13.287Z,19.29
2017-04-01T11:20:22.188Z,19.19
2017-04-01T11:21:31.243Z,19.26
2017-04-01T11:22:40.136Z,19.28
2017-04-01T11:23:49.033Z,19.48
2017-04-01T11:24:57.930Z,19.54
2017-04-01T11:26:07.161Z,19.4
2017-04-01T11:27:16.482Z,19.41
2017-04-01T11:28:25.393Z,19.32
2017-04-01T11:29:34.622Z,19.5
2017-04-01T11:30:43.524Z,19.63
2017-04-01T11:31:52.429Z,19.71
2017-04-01T11:33:01.489Z,19.8
2017-04-01T11:34:10.390Z,19.86
2017-04-01T11:35:19.289Z,19.83
2017-04-01T11:36:28.191Z,19.99
2017-04-01T11:37:37.091Z,19.98
2017-04-01T11:38:45.991Z,19.91
2017-04-01T11:39:54.892Z,20.11
2017-04-01T11:41:03.791Z,20.1
2017-04-01T11:42:12.689Z,20.01
2017-04-01T11:43:21.596Z,20.05
2017-04-01T11:44:30.547Z,20.13
2017-04-01T11:45:39.448Z,19.96
2017-04-01T11:46:48.678Z,20.06
2017-04-01T11:47:57.580Z,20.16
2017-04-01T11:49:06.479Z,20.16
2017-04-01T11:50:15.432Z,20.2
2017-04-01T11:51:24.334Z,20.31
2017-04-01T11:52:33.889Z,20.39
2017-04-01T11:53:43.119Z,20.31
2017-04-01T11:54:52.019Z,20.28
2017-04-01T11:56:01.071Z,20.31
2017-04-01T11:57:09.978Z,20.28
2017-04-01T11:58:18.880Z,20.17
2017-04-01T11:59:27.778Z,20.21
2017-04-01T12:00:36.680Z,20.32
2017-04-01T12:01:45.991Z,20.2
2017-04-01T12:02:54.900Z,20.17
2017-04-01T12:04:03.800Z,20.24
2017-04-01T12:05:12.704Z,20.24
2017-04-01T12:06:21.605Z,20.03
2017-04-01T12:07:30.556Z,19.96
2017-04-01T12:08:39.462Z,20.08
2017-04-01T12:09:48.692Z,20.02
2017-04-01T12:10:57.922Z,20.05
2017-04-01T12:12:07.478Z,20.06
2017-04-01T12:13:16.534Z,20.16
2017-04-01T12:14:25.434Z,20.21
2017-04-01T12:15:34.338Z,20.06
2017-04-01T12:16:43.246Z,20.06
2017-04-01T12:17:52.143Z,20.16
2017-04-01T12:19:01.243Z,20.14
2017-04-01T12:20:10.146Z,20.2
2017-04-01T12:21:19.047Z,20.31
2017-04-01T12:22:27.947Z,20.24
2017-04-01T12:23:36.845Z,20.36
2017-04-01T12:24:45.905Z,20.36
2017-04-01T12:25:54.807Z,20.28
2017-04-01T12:27:03.713Z,20.2
2017-04-01T12:28:12.938Z,20.18
2017-04-01T12:29:22.159Z,20.17
2017-04-01T12:30:31.413Z,20.23
2017-04-01T12:31:40.404Z,20.35
2017-04-01T12:32:49.462Z,20.47
2017-04-01T12:33:58.870Z,20.26
2017-04-01T12:35:07.865Z,20.36
2017-04-01T12:36:16.865Z,20.48
2017-04-01T12:37:25.765Z,20.48
2017-04-01T12:38:34.665Z,20.31
2017-04-01T12:39:43.566Z,20.32
2017-04-01T12:40:52.792Z,20.36
2017-04-01T12:42:02.270Z,20.39
2017-04-01T12:43:11.170Z,20.38
2017-04-01T12:44:20.106Z,20.32
2017-04-01T12:45:29.015Z,20.26
2017-04-01T12:46:37.915Z,20.32
2017-04-01T12:47:47.065Z,20.36
2017-04-01T12:48:55.960Z,20.32
2017-04-01T12:50:05.184Z,20.17
2017-04-01T12:51:14.419Z,20.26
2017-04-01T12:52:23.333Z,20.29
2017-04-01T12:53:32.236Z,20.36
2017-04-01T12:54:41.458Z,20.38
2017-04-01T12:55:50.362Z,20.38
2017-04-01T12:56:59.268Z,20.39
2017-04-01T12:58:08.169Z,20.29
2017-04-01T12:59:17.218Z,20.39
2017-04-01T13:00:26.120Z,20.32
2017-04-01T13:01:35.366Z,20.33
2017-04-01T13:02:44.266Z,20.31
2017-04-01T13:03:53.300Z,20.29
2017-04-01T13:05:02.208Z,20.28
2017-04-01T13:06:11.109Z,20.2
2017-04-01T13:07:20.023Z,20.32
2017-04-01T13:08:28.929Z,20.35
2017-04-01T13:09:37.849Z,20.33
2017-04-01T13:10:46.839Z,20.31
2017-04-01T13:11:55.767Z,20.32
2017-04-01T13:13:04.691Z,20.32
2017-04-01T13:14:13.603Z,20.26
2017-04-01T13:15:22.529Z,20.2
2017-04-01T13:16:31.485Z,20.17
2017-04-01T13:17:40.721Z,20.06
2017-04-01T13:18:49.960Z,20.05
2017-04-01T13:19:58.870Z,20.13
2017-04-01T13:21:07.777Z,20.1
2017-04-01T13:22:16.828Z,20.03
2017-04-01T13:23:25.729Z,19.91
2017-04-01T13:24:34.689Z,20.01
2017-04-01T13:25:43.586Z,20.02
2017-04-01T13:26:52.487Z,19.86
2017-04-01T13:28:01.533Z,19.87
2017-04-01T13:29:10.766Z,19.92
2017-04-01T13:30:19.683Z,19.98
2017-04-01T13:31:28.920Z,19.99
2017-04-01T13:32:37.834Z,19.98
2017-04-01T13:33:46.838Z,20.05
2017-04-01T13:34:55.734Z,19.99
2017-04-01T13:36:04.636Z,19.96
2017-04-01T13:37:13.544Z,19.84
2017-04-01T13:38:22.784Z,19.92
2017-04-01T13:39:31.743Z,20.1
2017-04-01T13:40:40.971Z,20.06
2017-04-01T13:41:49.870Z,20.02
2017-04-01T13:42:58.776Z,20.1
2017-04-01T13:44:07.683Z,20.13
2017-04-01T13:45:16.732Z,20.06
2017-04-01T13:46:25.629Z,19.98
2017-04-01T13:47:34.528Z,20.1
2017-04-01T13:48:43.449Z,20.06
2017-04-01T13:49:52.365Z,20.14
2017-04-01T13:51:01.778Z,20.24
2017-04-01T13:52:10.677Z,20.23
2017-04-01T13:53:19.910Z,20.29
2017-04-01T13:54:28.820Z,20.26
2017-04-01T13:55:37.727Z,20.16
2017-04-01T13:56:47.085Z,20.26
2017-04-01T13:57:56.222Z,20.1
2017-04-01T13:59:05.172Z,20.06
2017-04-01T14:00:14.113Z,20.1
2017-04-01T14:01:23.068Z,20.1
2017-04-01T14:02:32.310Z,20.06
2017-04-01T14:03:41.209Z,20.1
2017-04-01T14:04:50.112Z,20.29
2017-04-01T14:05:59.012Z,20.29
2017-04-01T14:07:08.273Z,20.35
2017-04-01T14:08:17.697Z,20.43
2017-04-01T14:09:26.592Z,20.36
2017-04-01T14:10:35.493Z,20.41
2017-04-01T14:11:44.718Z,20.39
2017-04-01T14:12:53.672Z,20.41
2017-04-01T14:14:03.073Z,20.31
2017-04-01T14:15:11.973Z,20.31
2017-04-01T14:16:20.869Z,20.35
2017-04-01T14:17:29.776Z,20.18
2017-04-01T14:18:38.682Z,20.21
2017-04-01T14:19:47.929Z,20.33
2017-04-01T14:20:56.826Z,20.31
2017-04-01T14:22:05.765Z,20.32
2017-04-01T14:23:14.668Z,20.35
2017-04-01T14:24:23.568Z,20.36
2017-04-01T14:25:32.773Z,20.31
2017-04-01T14:26:41.680Z,20.2
2017-04-01T14:27:50.583Z,20.21
2017-04-01T14:28:59.818Z,20.17
2017-04-01T14:30:08.719Z,20.11
2017-04-01T14:31:17.875Z,20.08
2017-04-01T14:32:26.778Z,20.06
2017-04-01T14:33:35.679Z,20.08
2017-04-01T14:34:44.575Z,20.08
2017-04-01T14:35:53.474Z,20.06
2017-04-01T14:37:02.439Z,19.87
2017-04-01T14:38:11.666Z,19.83
2017-04-01T14:39:20.892Z,19.77
2017-04-01T14:40:29.824Z,19.86
2017-04-01T14:41:38.724Z,20.05
2017-04-01T14:42:48.103Z,20.11
2017-04-01T14:43:57.324Z,20.08
2017-04-01T14:45:06.222Z,20.06
2017-04-01T14:46:15.452Z,19.88
2017-04-01T14:47:24.999Z,19.96
2017-04-01T14:48:34.053Z,19.87
2017-04-01T14:49:42.950Z,19.92
2017-04-01T14:50:51.845Z,19.91
2017-04-01T14:52:00.745Z,19.83